Pagina principale
METAR-TAF:

METAR-TAF

Aeroporti :

Aeroporto di Rivolto

Udine, Italia

latitudine: 45-59N, longitudine: 013-02E, altezza: 51 m

Osservazione

Il bollettino è stato emesso 54 minuti fa, alle 09:55 UTC
Vento 3 kt da est/nord-est
Temperature 14°C
Umidità 47%
Pressione 1022 hPa
Visibilità 10 km o più
Poco nuvoloso ad un'altezza di 7000 ft
Nubi sparse ad un'altezza di 10000 ft

METAR: LIPI 260955Z 06003KT 9999 FEW070 SCT100 14/03 Q1022 RMK BKN VIS MIN 9999 WIND THR06 05003KT WIND THR24 06003KT BLU

Ora: 12:49 (10:49 UTC)

Previsione

Il bollettino è stato emesso 2 ore e 49 minuti fa, alle 08:00 UTC
Previsione valida dal 26 alle 09 UTC al 26 alle 18 UTC
Vento 3 kt da direzioni variabili
Visibilità 10 km o più
nessuna nube inferiore a 1500 m e nessun cumulonembo
Temporaneamente
dal 26 alle 09 UTC al 26 alle 12 UTC
Nubi sparse ad un'altezza di 8000 ft

TAF: LIPI 260800Z 2609/2618 VRB03KT CAVOK TEMPO 2609/2612 SCT080

Osservazioni e previsioni meteorologiche di più di 4000 aeroporti (messaggi METAR e TAF).

Le stazioni disponibili sono rappresentate dai dischi gialli e rossi sulla carta.

Puntare il mouse per vedere il nome della stazione.

Clicca sopra per visualizzare le osservazioni e previsioni meteorologiche.

Per cambiare la mappa : fare clic sui pulsanti verdi con una croce nera per ingrandire, il pulsante verde con un trattino per diminuire, o sulla freccia verde per le mappe adiacenti.


METAR-TAF: